Time;durP1;ratioP1;P1;durP2;ratioP2;P2;SDS_P1;SDS_P2;PMS_P1;PMS_P2;Temp;Humidity;BMP_temperature;BMP_pressure;BME280_temperature;BME280_humidity;BME280_pressure;Samples;Min_cycle;Max_cycle;Signal;HPM_P1;HPM_P2
2022/12/11 00:00:53;;;;;;;32.47;15.27;;;;;;;-0.82;100.00;99891.50;5085709;28;20039;-79
2022/12/11 00:03:19;;;;;;;26.10;15.80;;;;;;;-0.84;100.00;99893.31;5107073;28;20065;-79
2022/12/11 00:05:45;;;;;;;28.98;16.02;;;;;;;-0.87;100.00;99899.53;5103693;28;20392;-79
2022/12/11 00:08:12;;;;;;;32.00;14.82;;;;;;;-0.85;100.00;99896.84;5100506;28;20081;-79
2022/12/11 00:10:37;;;;;;;29.27;15.27;;;;;;;-0.87;100.00;99896.94;5106499;28;20035;-80
2022/12/11 00:13:04;;;;;;;31.23;15.55;;;;;;;-0.86;100.00;99892.59;5082326;28;20036;-80
2022/12/11 00:15:30;;;;;;;26.45;14.98;;;;;;;-0.90;100.00;99887.56;5100396;28;20101;-80
2022/12/11 00:17:56;;;;;;;28.80;14.35;;;;;;;-0.95;100.00;99884.38;5103960;28;20491;-80
2022/12/11 00:20:22;;;;;;;33.47;15.35;;;;;;;-0.93;100.00;99887.75;5085587;28;20081;-80
2022/12/11 00:22:48;;;;;;;33.25;14.40;;;;;;;-0.93;100.00;99889.50;5084418;28;20040;-79
2022/12/11 00:25:13;;;;;;;75.03;18.25;;;;;;;-0.97;100.00;99888.00;5086820;28;20044;-80
2022/12/11 00:27:39;;;;;;;89.68;15.93;;;;;;;-1.03;100.00;99894.34;5092395;28;20472;-80
2022/12/11 00:30:05;;;;;;;51.17;14.90;;;;;;;-1.05;100.00;99891.00;5104359;28;20468;-80
2022/12/11 00:32:31;;;;;;;32.08;14.38;;;;;;;-1.07;100.00;99895.44;5074481;28;20474;-80
2022/12/11 00:34:57;;;;;;;44.05;17.42;;;;;;;-1.06;100.00;99899.69;5091428;28;20130;-80
2022/12/11 00:37:23;;;;;;;30.55;14.30;;;;;;;-1.05;100.00;99891.00;5097814;28;20041;-80
2022/12/11 00:39:49;;;;;;;31.65;14.05;;;;;;;-1.04;100.00;99888.34;5103454;28;20059;-80
2022/12/11 00:42:14;;;;;;;46.58;19.17;;;;;;;-1.05;100.00;99885.81;5071865;28;20052;-80
2022/12/11 00:44:40;;;;;;;31.02;16.00;;;;;;;-1.09;100.00;99886.88;5050147;28;20081;-80
2022/12/11 00:47:07;;;;;;;37.83;14.05;;;;;;;-1.10;100.00;99886.06;5092746;28;20092;-80
2022/12/11 00:49:33;;;;;;;31.33;14.35;;;;;;;-1.11;100.00;99897.34;5106429;28;20034;-79
2022/12/11 00:51:59;;;;;;;26.27;13.70;;;;;;;-1.19;100.00;99886.53;5108256;28;20398;-79
2022/12/11 00:54:25;;;;;;;30.00;14.25;;;;;;;-1.21;100.00;99893.59;5085392;28;20126;-80
2022/12/11 00:56:50;;;;;;;29.27;14.13;;;;;;;-1.23;100.00;99895.41;5092415;28;20380;-79
2022/12/11 00:59:16;;;;;;;28.60;14.30;;;;;;;-1.27;100.00;99897.31;5102712;28;20039;-79
2022/12/11 01:01:42;;;;;;;25.33;14.13;;;;;;;-1.34;100.00;99890.81;5105314;28;20063;-79
2022/12/11 01:04:08;;;;;;;34.15;15.02;;;;;;;-1.37;100.00;99892.63;5089370;28;20039;-80
2022/12/11 01:06:33;;;;;;;29.25;13.95;;;;;;;-1.34;100.00;99893.41;5096967;28;20044;-79
2022/12/11 01:11:44;;;;;;;29.67;14.68;;;;;;;-1.28;100.00;99893.06;5108067;28;20081;-80
2022/12/11 01:14:11;;;;;;;29.73;13.68;;;;;;;-1.22;100.00;99890.16;5088381;28;20062;-79
2022/12/11 01:16:37;;;;;;;31.30;15.77;;;;;;;-1.18;100.00;99891.66;5076972;28;20388;-79
2022/12/11 01:19:03;;;;;;;27.05;14.52;;;;;;;-1.12;100.00;99890.50;5086600;28;20560;-80
2022/12/11 01:21:29;;;;;;;26.23;14.13;;;;;;;-1.04;100.00;99892.66;5073931;28;20835;-80
2022/12/11 01:23:55;;;;;;;32.70;14.82;;;;;;;-1.00;100.00;99892.41;5092773;28;20041;-80
2022/12/11 01:26:21;;;;;;;26.38;14.18;;;;;;;-0.97;100.00;99891.41;5107300;28;20023;-80
2022/12/11 01:28:50;;;;;;;26.63;14.52;;;;;;;-0.89;100.00;99883.19;5072025;28;20023;-80
2022/12/11 01:31:18;;;;;;;22.65;12.75;;;;;;;-0.86;100.00;99882.22;5067222;28;20082;-80
2022/12/11 01:33:44;;;;;;;26.35;13.95;;;;;;;-0.85;100.00;99878.69;5107663;28;20036;-80
2022/12/11 01:36:18;;;;;;;24.35;13.13;;;;;;;-0.84;100.00;99878.59;5082232;28;20149;-80
2022/12/11 01:38:45;;;;;;;25.98;13.68;;;;;;;-0.81;100.00;99886.22;5060381;28;20479;-80
2022/12/11 01:41:12;;;;;;;28.20;13.40;;;;;;;-0.80;100.00;99889.66;5068607;28;20028;-80
2022/12/11 01:43:58;;;;;;;24.10;13.50;;;;;;;-0.76;100.00;99875.59;5088072;28;20028;-80
2022/12/11 01:46:25;;;;;;;22.10;12.10;;;;;;;-0.79;100.00;99875.75;5082119;28;20101;-80
2022/12/11 01:48:52;;;;;;;25.27;12.27;;;;;;;-0.79;100.00;99886.97;5090061;28;20059;-80
2022/12/11 01:51:18;;;;;;;22.30;12.23;;;;;;;-0.75;100.00;99874.69;5109318;28;20035;-80
2022/12/11 01:53:49;;;;;;;20.17;11.57;;;;;;;-0.69;100.00;99874.34;5106095;28;20032;-80
2022/12/11 01:56:16;;;;;;;27.42;13.30;;;;;;;-0.66;100.00;99868.97;5102557;28;20360;-80
2022/12/11 01:58:53;;;;;;;22.83;12.85;;;;;;;-0.60;100.00;99877.31;5103019;28;20048;-80
2022/12/11 02:01:45;;;;;;;22.63;11.88;;;;;;;-0.58;100.00;99881.50;5089372;28;20036;-81
2022/12/11 02:04:14;;;;;;;20.38;10.80;;;;;;;-0.57;100.00;99882.34;5078314;28;20063;-80
2022/12/11 02:06:43;;;;;;;19.75;10.80;;;;;;;-0.51;100.00;99874.22;5086631;28;20115;-80
2022/12/11 02:09:15;;;;;;;19.48;11.73;;;;;;;-0.46;100.00;99885.16;5083692;28;20038;-80
2022/12/11 02:12:13;;;;;;;20.50;11.00;;;;;;;-0.43;100.00;99874.59;5102842;28;20043;-80
2022/12/11 02:14:59;;;;;;;19.52;10.95;;;;;;;-0.40;100.00;99874.44;5073335;28;20131;-80
2022/12/11 02:17:40;;;;;;;20.02;11.48;;;;;;;-0.43;100.00;99869.41;5089143;28;20373;-80
2022/12/11 02:20:08;;;;;;;17.20;10.32;;;;;;;-0.43;100.00;99866.81;5107187;28;20035;-80
2022/12/11 02:23:06;;;;;;;15.20;9.70;;;;;;;-0.41;100.00;99877.09;5073847;28;20067;-80
2022/12/11 02:25:39;;;;;;;19.23;11.63;;;;;;;-0.48;100.00;99876.66;5093253;28;20196;-80
2022/12/11 02:28:39;;;;;;;22.77;11.82;;;;;;;-0.52;100.00;99875.13;5110356;28;20490;-80
2022/12/11 02:31:31;;;;;;;21.02;11.88;;;;;;;-0.55;100.00;99873.56;5103494;28;20471;-80
2022/12/11 02:34:02;;;;;;;18.00;10.85;;;;;;;-0.56;100.00;99879.69;5080155;28;20537;-80
2022/12/11 02:36:32;;;;;;;17.58;11.20;;;;;;;-0.59;100.00;99877.22;5103663;28;20028;-80
2022/12/11 02:39:01;;;;;;;18.58;10.45;;;;;;;-0.59;100.00;99886.78;5069040;28;20027;-80
2022/12/11 02:41:28;;;;;;;22.08;11.95;;;;;;;-0.64;100.00;99881.88;5106592;28;20130;-80
2022/12/11 02:43:56;;;;;;;28.13;11.95;;;;;;;-0.64;100.00;99887.06;5107336;28;20047;-80
2022/12/11 02:46:23;;;;;;;163.68;16.42;;;;;;;-0.72;100.00;99891.81;5100338;28;20027;-80
2022/12/11 02:48:52;;;;;;;256.83;16.15;;;;;;;-0.78;100.00;99893.00;5092569;28;20630;-80
2022/12/11 02:51:23;;;;;;;253.23;16.08;;;;;;;-0.79;100.00;99878.34;5077578;28;20035;-81
2022/12/11 02:53:53;;;;;;;220.93;15.35;;;;;;;-0.83;100.00;99882.88;5091744;28;20097;-80
2022/12/11 02:56:25;;;;;;;267.25;12.50;;;;;;;-0.91;100.00;99879.88;5092548;28;20601;-80
2022/12/11 02:58:58;;;;;;;306.48;14.60;;;;;;;-0.95;100.00;99884.38;5089869;28;20412;-80
2022/12/11 03:01:24;;;;;;;270.30;15.07;;;;;;;-0.95;100.00;99883.53;5076670;28;20429;-81
2022/12/11 03:03:51;;;;;;;321.10;15.60;;;;;;;-0.94;100.00;99880.03;5102794;28;20395;-80
2022/12/11 03:06:20;;;;;;;530.38;19.95;;;;;;;-0.94;100.00;99874.84;5104773;28;20492;-80
2022/12/11 03:08:46;;;;;;;311.08;14.93;;;;;;;-0.96;100.00;99877.53;5110326;28;20038;-80
2022/12/11 03:11:12;;;;;;;290.25;16.30;;;;;;;-0.94;100.00;99888.66;5108830;28;20023;-80
2022/12/11 03:13:41;;;;;;;148.52;13.68;;;;;;;-0.95;100.00;99879.19;5109459;28;20164;-80
2022/12/11 03:16:25;;;;;;;323.58;15.10;;;;;;;-0.92;100.00;99883.38;5109169;28;20472;-80
2022/12/11 03:18:58;;;;;;;69.18;10.35;;;;;;;-0.89;100.00;99878.84;5094227;28;20036;-80
2022/12/11 03:21:37;;;;;;;45.95;8.55;;;;;;;-0.88;100.00;99877.94;5087359;28;20084;-80
2022/12/11 03:24:32;;;;;;;337.65;14.82;;;;;;;-0.87;100.00;99876.19;5091248;28;20084;-80
2022/12/11 03:27:04;;;;;;;144.63;11.75;;;;;;;-0.92;100.00;99886.81;5104097;28;20127;-80
2022/12/11 03:29:37;;;;;;;181.25;13.43;;;;;;;-0.93;100.00;99887.75;5089818;28;20032;-81
2022/12/11 03:32:09;;;;;;;118.57;12.35;;;;;;;-1.00;100.00;99884.63;5090875;28;20049;-80
2022/12/11 03:34:42;;;;;;;189.15;13.68;;;;;;;-1.07;100.00;99883.31;5073699;28;20040;-80
2022/12/11 03:37:09;;;;;;;179.95;12.80;;;;;;;-1.11;100.00;99891.34;5086066;28;20039;-80
2022/12/11 03:39:39;;;;;;;102.35;11.25;;;;;;;-1.16;100.00;99876.00;5091956;28;20042;-80
2022/12/11 03:42:09;;;;;;;106.60;11.45;;;;;;;-1.17;100.00;99882.97;5111307;28;20149;-80
2022/12/11 03:44:35;;;;;;;152.25;11.63;;;;;;;-1.19;100.00;99876.16;5103771;28;20051;-80
2022/12/11 03:47:05;;;;;;;169.20;11.95;;;;;;;-1.17;100.00;99876.94;5101575;28;20036;-80
2022/12/11 03:49:37;;;;;;;51.05;9.88;;;;;;;-1.15;100.00;99878.50;5089344;28;20065;-80
2022/12/11 03:52:05;;;;;;;69.32;10.63;;;;;;;-1.13;100.00;99883.63;5083525;28;20106;-80
2022/12/11 03:54:33;;;;;;;171.48;12.77;;;;;;;-1.10;100.00;99880.03;5093932;28;20036;-80
2022/12/11 03:57:01;;;;;;;94.80;10.70;;;;;;;-1.07;100.00;99877.28;5109398;28;20539;-80
2022/12/11 03:59:27;;;;;;;73.30;11.45;;;;;;;-1.08;100.00;99884.22;5076331;28;20411;-80
2022/12/11 04:01:53;;;;;;;108.13;12.77;;;;;;;-1.08;100.00;99873.03;5112304;28;20124;-80
2022/12/11 04:04:19;;;;;;;124.95;11.80;;;;;;;-1.10;100.00;99872.25;5093689;28;20028;-80
2022/12/11 04:06:45;;;;;;;27.98;9.48;;;;;;;-1.15;100.00;99868.13;5096199;28;20503;-80
2022/12/11 04:09:11;;;;;;;211.68;13.88;;;;;;;-1.17;100.00;99867.41;5083515;28;20035;-80
2022/12/11 04:11:38;;;;;;;54.08;10.07;;;;;;;-1.18;100.00;99870.91;5093150;28;20437;-80
2022/12/11 04:16:56;;;;;;;22.13;10.63;;;;;;;-1.17;100.00;99864.81;5090414;28;20419;-80
2022/12/11 04:24:57;;;;;;;24.98;9.80;;;;;;;-1.25;100.00;99870.41;5092514;28;20062;-80
2022/12/11 04:30:11;;;;;;;14.25;8.80;;;;;;;-1.41;100.00;99875.56;5079450;28;20093;-80
2022/12/11 04:32:37;;;;;;;16.33;8.70;;;;;;;-1.45;100.00;99874.03;5090812;28;20045;-81
2022/12/11 04:35:05;;;;;;;12.80;8.15;;;;;;;-1.47;100.00;99875.06;5087855;28;20050;-80
2022/12/11 04:37:31;;;;;;;21.38;8.63;;;;;;;-1.49;100.00;99875.13;5093528;28;20063;-81
2022/12/11 04:39:57;;;;;;;21.40;8.10;;;;;;;-1.49;100.00;99869.94;5090570;28;20063;-80
2022/12/11 04:42:22;;;;;;;13.90;8.02;;;;;;;-1.52;100.00;99870.09;5092083;28;20035;-81
2022/12/11 04:44:48;;;;;;;21.52;7.78;;;;;;;-1.51;100.00;99875.22;5091424;28;20054;-79
2022/12/11 04:47:14;;;;;;;12.00;7.60;;;;;;;-1.54;100.00;99865.00;5093624;28;20054;-80
2022/12/11 04:49:40;;;;;;;13.50;8.23;;;;;;;-1.54;100.00;99864.16;5066325;28;20054;-79
2022/12/11 04:52:06;;;;;;;9.38;6.65;;;;;;;-1.54;100.00;99866.75;5095084;28;20035;-80
2022/12/11 04:54:32;;;;;;;9.48;6.88;;;;;;;-1.56;100.00;99859.06;5092725;28;20036;-80
2022/12/11 04:56:58;;;;;;;10.85;7.18;;;;;;;-1.57;100.00;99860.00;5071153;28;20043;-80
2022/12/11 04:59:23;;;;;;;9.05;6.43;;;;;;;-1.56;100.00;99863.44;5067642;28;20059;-80
2022/12/11 05:01:49;;;;;;;7.82;5.88;;;;;;;-1.57;100.00;99872.09;5110576;28;20109;-80
2022/12/11 05:04:15;;;;;;;6.25;5.25;;;;;;;-1.61;100.00;99866.25;5061047;28;20031;-80
2022/12/11 05:06:41;;;;;;;7.22;5.22;;;;;;;-1.59;100.00;99861.00;5109423;28;20035;-80
2022/12/11 05:09:11;;;;;;;6.13;4.95;;;;;;;-1.56;100.00;99860.84;5109084;28;20061;-81
2022/12/11 05:11:37;;;;;;;7.97;5.38;;;;;;;-1.59;100.00;99859.22;5088272;28;20061;-80
2022/12/11 05:14:04;;;;;;;6.50;5.07;;;;;;;-1.60;100.00;99860.16;5105052;28;20035;-80
2022/12/11 05:16:29;;;;;;;7.05;5.13;;;;;;;-1.60;100.00;99861.91;5084989;28;20434;-83
2022/12/11 05:18:55;;;;;;;10.00;5.50;;;;;;;-1.66;100.00;99868.25;5105813;28;20100;-83
2022/12/11 05:21:21;;;;;;;8.88;5.32;;;;;;;-1.73;100.00;99865.13;5080559;28;20429;-83
2022/12/11 05:23:47;;;;;;;9.35;6.45;;;;;;;-1.75;100.00;99872.13;5091097;28;20072;-83
2022/12/11 05:26:18;;;;;;;9.70;6.05;;;;;;;-1.75;100.00;99878.16;5089337;28;20038;-83
2022/12/11 05:28:45;;;;;;;8.68;6.38;;;;;;;-1.78;100.00;99880.06;5072979;28;20042;-82
2022/12/11 05:31:18;;;;;;;12.45;7.95;;;;;;;-1.80;100.00;99887.91;5075327;28;20040;-82
2022/12/11 05:33:45;;;;;;;11.15;7.25;;;;;;;-1.89;100.00;99880.63;5089061;28;20040;-83
2022/12/11 05:36:20;;;;;;;12.57;8.55;;;;;;;-1.96;100.00;99880.13;5085169;28;20031;-83
2022/12/11 05:38:46;;;;;;;12.85;7.97;;;;;;;-2.02;100.00;99889.00;5088664;28;20035;-83
2022/12/11 05:41:15;;;;;;;12.57;7.60;;;;;;;-2.00;100.00;99887.19;5085397;28;20035;-83
2022/12/11 05:43:41;;;;;;;11.40;7.68;;;;;;;-2.04;100.00;99882.25;5074340;28;20395;-83
2022/12/11 05:46:11;;;;;;;13.55;9.13;;;;;;;-2.04;100.00;99882.25;5091053;28;20042;-83
2022/12/11 05:48:38;;;;;;;12.93;8.38;;;;;;;-2.03;100.00;99878.72;5088500;28;20544;-83
2022/12/11 05:51:05;;;;;;;16.50;9.23;;;;;;;-2.02;100.00;99870.03;5092803;28;20500;-83
2022/12/11 05:53:31;;;;;;;14.75;9.77;;;;;;;-2.03;100.00;99869.22;5097175;28;20613;-82
2022/12/11 05:56:16;;;;;;;10.82;7.47;;;;;;;-2.01;100.00;99869.13;5096002;28;20071;-82
2022/12/11 05:58:43;;;;;;;13.40;8.25;;;;;;;-2.02;100.00;99862.25;5088977;28;20142;-82
2022/12/11 06:01:13;;;;;;;11.57;7.65;;;;;;;-2.01;100.00;99864.78;5090664;28;20460;-82
2022/12/11 06:03:39;;;;;;;12.30;7.70;;;;;;;-2.05;100.00;99857.25;5101768;28;20058;-82
2022/12/11 06:06:07;;;;;;;10.95;7.45;;;;;;;-2.02;100.00;99862.25;5091467;28;20044;-82
2022/12/11 06:08:34;;;;;;;11.65;8.48;;;;;;;-2.01;100.00;99861.38;5085242;28;20062;-83
2022/12/11 06:11:00;;;;;;;11.95;8.32;;;;;;;-2.01;100.00;99858.78;5093530;28;20050;-82
2022/12/11 06:13:26;;;;;;;12.25;7.60;;;;;;;-2.03;100.00;99863.19;5101284;28;20027;-83
2022/12/11 06:15:52;;;;;;;10.48;6.97;;;;;;;-2.01;100.00;99863.97;5077526;28;20858;-82
2022/12/11 06:18:18;;;;;;;11.90;7.90;;;;;;;-1.98;100.00;99862.94;5113074;28;20483;-82
2022/12/11 06:20:44;;;;;;;22.27;14.10;;;;;;;-1.94;100.00;99865.31;5089476;28;20451;-83
2022/12/11 06:23:10;;;;;;;10.30;6.90;;;;;;;-1.97;100.00;99860.28;5086388;28;20057;-82
2022/12/11 06:25:39;;;;;;;11.27;6.97;;;;;;;-1.96;100.00;99867.16;5094239;28;20386;-82
2022/12/11 06:28:05;;;;;;;13.18;7.47;;;;;;;-2.14;100.00;99861.16;5113297;28;20505;-82
2022/12/11 06:30:31;;;;;;;13.32;7.38;;;;;;;-2.25;100.00;99865.13;5094443;28;20040;-82
2022/12/11 06:32:58;;;;;;;11.10;7.63;;;;;;;-2.27;100.00;99860.91;5079304;28;20035;-83
2022/12/11 06:35:24;;;;;;;15.27;8.45;;;;;;;-2.26;100.00;99860.84;5095058;28;20024;-82
2022/12/11 06:37:50;;;;;;;16.83;8.13;;;;;;;-2.28;100.00;99865.25;5086036;28;20495;-81
2022/12/11 06:40:16;;;;;;;9.30;6.70;;;;;;;-2.27;100.00;99872.13;5071179;28;20024;-82
2022/12/11 06:42:42;;;;;;;12.45;7.65;;;;;;;-2.23;100.00;99869.38;5100889;28;20050;-82
2022/12/11 06:45:08;;;;;;;11.27;6.70;;;;;;;-2.19;100.00;99866.56;5103366;28;20035;-83
2022/12/11 06:47:34;;;;;;;12.13;7.95;;;;;;;-2.19;100.00;99860.53;5096406;28;20067;-82
2022/12/11 06:50:01;;;;;;;8.85;6.47;;;;;;;-2.16;100.00;99862.97;5105859;28;20040;-81
2022/12/11 06:52:27;;;;;;;10.40;6.57;;;;;;;-2.14;100.00;99867.16;5086524;28;20115;-81
2022/12/11 06:54:54;;;;;;;19.77;11.13;;;;;;;-2.15;100.00;99869.84;5082724;28;20373;-81
2022/12/11 06:57:19;;;;;;;19.63;12.43;;;;;;;-2.21;100.00;99877.91;5096359;28;20070;-82
2022/12/11 06:59:48;;;;;;;37.58;22.15;;;;;;;-2.30;100.00;99874.00;5075479;28;20084;-81
2022/12/11 07:02:17;;;;;;;18.75;11.50;;;;;;;-2.42;100.00;99875.47;5088317;28;20502;-81
2022/12/11 07:04:46;;;;;;;10.43;7.22;;;;;;;-2.45;100.00;99871.25;5093264;28;20032;-81
2022/12/11 07:07:19;;;;;;;8.70;5.88;;;;;;;-2.50;100.00;99873.25;5077218;28;20395;-81
2022/12/11 07:09:48;;;;;;;11.57;7.45;;;;;;;-2.56;100.00;99873.50;5112734;28;20042;-81
2022/12/11 07:12:15;;;;;;;13.63;7.10;;;;;;;-2.55;100.00;99870.84;5112066;28;20510;-81
2022/12/11 07:14:42;;;;;;;16.15;7.65;;;;;;;-2.56;100.00;99873.50;5107821;28;20377;-81
2022/12/11 07:17:08;;;;;;;11.07;7.30;;;;;;;-2.55;100.00;99880.38;5110429;28;21059;-81
2022/12/11 07:19:33;;;;;;;14.20;8.23;;;;;;;-2.58;100.00;99890.88;5078545;28;20130;-82
2022/12/11 07:21:59;;;;;;;12.38;7.47;;;;;;;-2.62;100.00;99891.03;5109224;28;20040;-81
2022/12/11 07:24:25;;;;;;;19.65;12.27;;;;;;;-2.59;100.00;99884.00;5107235;28;20039;-82
2022/12/11 07:26:51;;;;;;;18.50;11.52;;;;;;;-2.59;100.00;99894.38;5091827;28;20070;-81
2022/12/11 07:29:18;;;;;;;11.85;8.02;;;;;;;-2.57;100.00;99892.56;5090057;28;20597;-82
2022/12/11 07:31:44;;;;;;;14.13;6.68;;;;;;;-2.63;100.00;99891.94;5090978;28;20043;-82
2022/12/11 07:34:12;;;;;;;11.35;6.70;;;;;;;-2.66;100.00;99884.31;5090054;28;20108;-81
2022/12/11 07:36:50;;;;;;;13.80;7.22;;;;;;;-2.68;100.00;99891.31;5079182;28;20085;-81
2022/12/11 07:39:28;;;;;;;9.63;6.82;;;;;;;-2.74;100.00;99889.03;5107124;28;20122;-81
2022/12/11 07:41:56;;;;;;;11.93;7.18;;;;;;;-2.76;100.00;99891.69;5085750;28;20564;-82
2022/12/11 07:44:27;;;;;;;10.88;7.18;;;;;;;-2.78;100.00;99890.91;5090521;28;20031;-82
2022/12/11 07:47:05;;;;;;;11.48;7.65;;;;;;;-2.76;100.00;99891.69;5091490;28;20122;-81
2022/12/11 07:49:46;;;;;;;11.32;7.25;;;;;;;-2.75;100.00;99887.34;5097820;28;20116;-81
2022/12/11 07:52:12;;;;;;;12.90;8.15;;;;;;;-2.77;100.00;99890.00;5101736;28;20039;-82
2022/12/11 07:54:39;;;;;;;28.48;18.40;;;;;;;-2.79;100.00;99897.00;5092324;28;20125;-82
2022/12/11 07:57:35;;;;;;;48.92;29.15;;;;;;;-2.77;100.00;99895.16;5095117;28;20455;-82
2022/12/11 08:00:03;;;;;;;46.65;29.08;;;;;;;-2.74;100.00;99902.78;5077563;28;20075;-82
2022/12/11 08:02:38;;;;;;;27.23;18.27;;;;;;;-2.72;100.00;99897.53;5111905;28;20498;-82
2022/12/11 08:05:04;;;;;;;13.88;9.98;;;;;;;-2.66;100.00;99894.66;5105323;28;20043;-81
2022/12/11 08:07:32;;;;;;;30.73;17.67;;;;;;;-2.63;100.00;99897.09;5110178;28;20036;-81
2022/12/11 08:09:58;;;;;;;14.20;9.60;;;;;;;-2.57;100.00;99902.91;5090117;28;20472;-82
2022/12/11 08:12:24;;;;;;;10.95;5.90;;;;;;;-2.52;100.00;99904.38;5092894;28;20069;-81
2022/12/11 08:14:49;;;;;;;10.00;6.57;;;;;;;-2.41;100.00;99905.59;5074709;28;20490;-81
2022/12/11 08:17:16;;;;;;;11.02;7.00;;;;;;;-2.40;100.00;99908.13;5075934;28;20449;-81
2022/12/11 08:19:42;;;;;;;13.20;6.65;;;;;;;-2.42;100.00;99915.09;5103889;28;20032;-81
2022/12/11 08:22:07;;;;;;;10.77;7.15;;;;;;;-2.39;100.00;99914.13;5076450;28;20382;-81
2022/12/11 08:24:33;;;;;;;10.77;7.13;;;;;;;-2.38;100.00;99916.66;5104545;28;20023;-81
2022/12/11 08:26:59;;;;;;;9.68;6.38;;;;;;;-2.34;100.00;99913.91;5106270;28;20028;-80
2022/12/11 08:29:25;;;;;;;11.95;7.10;;;;;;;-2.27;100.00;99915.28;5107254;28;20403;-81
2022/12/11 08:31:51;;;;;;;12.68;7.03;;;;;;;-2.19;100.00;99918.34;5110954;28;20043;-81
2022/12/11 08:34:17;;;;;;;9.55;6.82;;;;;;;-2.12;100.00;99924.06;5105248;28;20043;-80
2022/12/11 08:36:43;;;;;;;10.55;6.47;;;;;;;-2.07;100.00;99922.06;5086986;28;20475;-81
2022/12/11 08:39:09;;;;;;;10.02;6.70;;;;;;;-2.01;100.00;99910.56;5085703;28;20452;-81
2022/12/11 08:41:34;;;;;;;15.52;7.35;;;;;;;-1.99;100.00;99921.69;5089517;28;20043;-81
2022/12/11 08:44:01;;;;;;;10.43;6.50;;;;;;;-1.97;100.00;99922.44;5084886;28;20027;-82
2022/12/11 08:46:31;;;;;;;10.88;6.50;;;;;;;-1.93;100.00;99918.81;5076758;28;20035;-81
2022/12/11 08:48:58;;;;;;;9.55;6.28;;;;;;;-1.94;100.00;99914.53;5075984;28;20518;-81
2022/12/11 08:51:25;;;;;;;10.27;6.32;;;;;;;-1.93;100.00;99913.63;5092402;28;20039;-81
2022/12/11 08:53:55;;;;;;;7.70;5.50;;;;;;;-1.90;100.00;99912.63;5080864;28;20036;-81
2022/12/11 08:56:22;;;;;;;9.77;7.05;;;;;;;-1.91;100.00;99916.97;5042033;28;20032;-81
2022/12/11 08:58:49;;;;;;;31.70;24.17;;;;;;;-1.90;100.00;99920.41;5103664;28;20071;-81
2022/12/11 09:01:24;;;;;;;19.67;15.00;;;;;;;-2.01;100.00;99919.16;5083017;28;20035;-81
2022/12/11 09:03:51;;;;;;;23.58;15.25;;;;;;;-2.25;100.00;99919.50;5085831;28;20038;-81
2022/12/11 09:06:20;;;;;;;19.98;14.85;;;;;;;-2.52;100.00;99916.47;5086958;28;20065;-81
2022/12/11 09:08:49;;;;;;;21.83;11.75;;;;;;;-2.75;100.00;99920.97;5095459;28;20035;-81
2022/12/11 09:11:17;;;;;;;59.45;37.30;;;;;;;-2.89;100.00;99930.22;5079908;28;20031;-80
2022/12/11 09:13:43;;;;;;;49.22;31.08;;;;;;;-2.93;100.00;99931.25;5087435;28;20043;-81
2022/12/11 09:16:12;;;;;;;79.43;46.40;;;;;;;-2.90;100.00;99922.53;5065994;28;20035;-81
2022/12/11 09:18:39;;;;;;;40.38;27.55;;;;;;;-2.92;100.00;99934.69;5089601;28;20476;-80
2022/12/11 09:21:08;;;;;;;29.00;20.90;;;;;;;-2.87;100.00;99928.38;5085797;28;20043;-81
2022/12/11 09:23:35;;;;;;;27.38;15.50;;;;;;;-2.81;100.00;99927.28;5067291;28;20551;-81
2022/12/11 09:26:05;;;;;;;36.47;23.75;;;;;;;-2.69;100.00;99930.22;5087022;28;20443;-81
2022/12/11 09:28:33;;;;;;;29.20;20.48;;;;;;;-2.64;100.00;99923.91;5075589;28;20035;-81
2022/12/11 09:31:00;;;;;;;19.15;10.45;;;;;;;-2.57;100.00;99926.19;5081843;28;20062;-81
2022/12/11 09:33:26;;;;;;;12.40;7.55;;;;;;;-2.52;100.00;99932.84;5092994;28;20464;-81
2022/12/11 09:35:59;;;;;;;13.85;8.80;;;;;;;-2.44;100.00;99929.88;5090532;28;20043;-80
2022/12/11 09:38:25;;;;;;;11.25;8.55;;;;;;;-2.34;100.00;99934.63;5093163;28;20046;-80
2022/12/11 09:40:52;;;;;;;12.40;7.13;;;;;;;-2.27;100.00;99925.63;5092144;28;20037;-80
2022/12/11 09:43:29;;;;;;;12.15;7.45;;;;;;;-2.15;100.00;99934.56;5037289;28;20063;-80
2022/12/11 09:45:56;;;;;;;16.52;10.88;;;;;;;-2.08;100.00;99935.09;5108711;28;20132;-80
2022/12/11 09:48:24;;;;;;;13.85;8.80;;;;;;;-2.03;100.00;99933.13;5038963;28;20958;-80
2022/12/11 09:50:53;;;;;;;24.75;15.77;;;;;;;-1.93;100.00;99926.59;5070422;28;20035;-80
2022/12/11 09:53:34;;;;;;;18.38;12.88;;;;;;;-1.89;100.00;99929.84;5110140;28;20031;-80
2022/12/11 09:56:16;;;;;;;75.88;45.30;;;;;;;-1.85;100.00;99944.34;5081835;28;20035;-80
2022/12/11 09:59:07;;;;;;;27.20;15.43;;;;;;;-1.79;100.00;99938.00;5087530;28;20043;-81
2022/12/11 10:01:48;;;;;;;26.40;12.40;;;;;;;-1.75;100.00;99942.94;5095761;28;20177;-80
2022/12/11 10:04:17;;;;;;;17.25;11.40;;;;;;;-1.77;100.00;99944.75;5109330;28;20031;-81
2022/12/11 10:06:57;;;;;;;17.50;10.20;;;;;;;-1.75;100.00;99950.72;5107779;28;20028;-80
2022/12/11 10:09:44;;;;;;;11.15;7.15;;;;;;;-1.71;100.00;99943.63;5076490;28;20084;-80
2022/12/11 10:12:26;;;;;;;110.07;59.03;;;;;;;-1.66;100.00;99951.16;5083070;28;20429;-80
2022/12/11 10:15:03;;;;;;;105.32;62.53;;;;;;;-1.65;100.00;99945.91;5108984;28;20040;-80
2022/12/11 10:17:31;;;;;;;61.17;38.75;;;;;;;-1.59;100.00;99939.56;5106028;28;20382;-81
2022/12/11 10:20:20;;;;;;;49.22;26.90;;;;;;;-1.55;100.00;99948.03;5086514;28;20123;-81
2022/12/11 10:22:48;;;;;;;45.70;24.88;;;;;;;-1.53;100.00;99941.84;5086073;28;20032;-80
2022/12/11 10:25:25;;;;;;;124.15;57.85;;;;;;;-1.43;100.00;99943.94;5086377;28;20119;-81
2022/12/11 10:27:51;;;;;;;56.38;27.83;;;;;;;-1.40;100.00;99947.22;5077939;28;20032;-80
2022/12/11 10:30:28;;;;;;;31.45;15.52;;;;;;;-1.31;100.00;99952.88;5087011;28;20036;-80
2022/12/11 10:33:21;;;;;;;14.55;8.95;;;;;;;-1.26;100.00;99946.50;5088209;28;20904;-80
2022/12/11 10:35:51;;;;;;;60.60;30.08;;;;;;;-1.21;100.00;99951.47;5107362;28;20036;-78
2022/12/11 10:38:28;;;;;;;38.72;22.48;;;;;;;-1.11;100.00;99953.59;5103671;28;20115;-80
2022/12/11 10:41:10;;;;;;;14.82;9.15;;;;;;;-1.06;100.00;99952.41;5098374;28;20032;-80
2022/12/11 10:43:42;;;;;;;14.27;8.82;;;;;;;-0.94;100.00;99947.50;5104835;28;20469;-81
2022/12/11 10:46:20;;;;;;;12.52;8.35;;;;;;;-0.88;100.00;99957.53;5107470;28;20035;-80
2022/12/11 10:48:52;;;;;;;12.98;8.07;;;;;;;-0.83;100.00;99954.69;5107537;28;20044;-80
2022/12/11 10:51:21;;;;;;;10.73;8.38;;;;;;;-0.80;100.00;99952.78;5100489;28;20082;-80
2022/12/11 10:53:52;;;;;;;13.30;8.50;;;;;;;-0.77;100.00;99959.56;5092434;28;20475;-81
2022/12/11 10:56:29;;;;;;;14.73;8.77;;;;;;;-0.74;100.00;99959.38;5093133;28;20082;-80
2022/12/11 10:58:57;;;;;;;12.40;7.93;;;;;;;-0.70;100.00;99954.88;5105084;28;20102;-81
2022/12/11 11:01:26;;;;;;;10.35;8.20;;;;;;;-0.72;100.00;99954.13;5073355;28;20066;-81
2022/12/11 11:04:03;;;;;;;9.18;6.88;;;;;;;-0.66;100.00;99956.38;5090204;28;20122;-80
2022/12/11 11:06:29;;;;;;;31.70;20.23;;;;;;;-0.64;100.00;99947.56;5098599;28;20038;-81
2022/12/11 11:08:57;;;;;;;11.52;7.80;;;;;;;-0.56;100.00;99952.38;5103986;28;20031;-81
2022/12/11 11:11:36;;;;;;;10.20;7.38;;;;;;;-0.46;100.00;99946.66;5071547;28;20130;-81
2022/12/11 11:14:16;;;;;;;14.05;8.73;;;;;;;-0.40;100.00;99944.53;5085780;28;20411;-81
2022/12/11 11:16:44;;;;;;;27.70;19.67;;;;;;;-0.33;100.00;99949.38;5104455;28;20044;-81
2022/12/11 11:19:29;;;;;;;12.93;9.63;;;;;;;-0.21;100.00;99947.88;5107957;28;20065;-81
2022/12/11 11:22:01;;;;;;;10.90;7.65;;;;;;;-0.08;100.00;99940.22;5106723;28;20035;-81
2022/12/11 11:24:41;;;;;;;11.02;6.97;;;;;;;-0.01;100.00;99941.53;5070629;28;20020;-81
2022/12/11 11:27:33;;;;;;;9.68;7.05;;;;;;;0.14;100.00;99936.38;5070760;28;20039;-81
2022/12/11 11:30:01;;;;;;;9.88;6.60;;;;;;;0.20;100.00;99931.66;5105139;28;20058;-81
2022/12/11 11:32:37;;;;;;;10.23;7.22;;;;;;;0.24;100.00;99925.34;5105198;28;20136;-81
2022/12/11 11:35:10;;;;;;;9.50;6.95;;;;;;;0.33;100.00;99923.13;5108744;28;20543;-81
2022/12/11 11:37:37;;;;;;;8.77;6.65;;;;;;;0.40;100.00;99928.81;5104102;28;20387;-81
2022/12/11 11:40:26;;;;;;;9.02;6.47;;;;;;;0.49;100.00;99926.47;5083875;28;20036;-81